sensor_id;sensor_type;location;lat;lon;timestamp;P1;durP1;ratioP1;P2;durP2;ratioP2
45059;SDS011;30799;49.060;9.312;2022-08-11T00:01:19;3.25;;;1.63;;
45059;SDS011;30799;49.060;9.312;2022-08-11T00:03:49;2.25;;;1.40;;
45059;SDS011;30799;49.060;9.312;2022-08-11T00:06:26;1.20;;;1.10;;
45059;SDS011;30799;49.060;9.312;2022-08-11T00:09:03;1.42;;;1.15;;
45059;SDS011;30799;49.060;9.312;2022-08-11T00:11:54;1.48;;;1.25;;
45059;SDS011;30799;49.060;9.312;2022-08-11T00:14:25;1.40;;;1.30;;
45059;SDS011;30799;49.060;9.312;2022-08-11T00:19:32;1.30;;;1.20;;
45059;SDS011;30799;49.060;9.312;2022-08-11T00:22:21;2.05;;;1.20;;
45059;SDS011;30799;49.060;9.312;2022-08-11T00:24:49;1.35;;;1.05;;
45059;SDS011;30799;49.060;9.312;2022-08-11T00:29:58;1.58;;;1.20;;
45059;SDS011;30799;49.060;9.312;2022-08-11T00:32:25;1.20;;;1.10;;
45059;SDS011;30799;49.060;9.312;2022-08-11T00:34:54;1.90;;;1.42;;
45059;SDS011;30799;49.060;9.312;2022-08-11T00:37:47;1.48;;;1.30;;
45059;SDS011;30799;49.060;9.312;2022-08-11T00:40:18;2.17;;;1.30;;
45059;SDS011;30799;49.060;9.312;2022-08-11T00:45:39;1.55;;;1.45;;
45059;SDS011;30799;49.060;9.312;2022-08-11T00:51:36;1.33;;;1.23;;
45059;SDS011;30799;49.060;9.312;2022-08-11T01:00:13;1.13;;;1.10;;
45059;SDS011;30799;49.060;9.312;2022-08-11T01:08:06;1.25;;;0.98;;
45059;SDS011;30799;49.060;9.312;2022-08-11T01:16:36;2.22;;;1.27;;
45059;SDS011;30799;49.060;9.312;2022-08-11T01:40:41;1.35;;;1.25;;
45059;SDS011;30799;49.060;9.312;2022-08-11T01:46:30;1.30;;;1.20;;
45059;SDS011;30799;49.060;9.312;2022-08-11T01:49:34;2.30;;;1.13;;
45059;SDS011;30799;49.060;9.312;2022-08-11T01:52:29;1.63;;;1.33;;
45059;SDS011;30799;49.060;9.312;2022-08-11T01:55:13;2.97;;;1.05;;
45059;SDS011;30799;49.060;9.312;2022-08-11T01:57:51;1.20;;;1.10;;
45059;SDS011;30799;49.060;9.312;2022-08-11T02:00:26;1.23;;;1.13;;
45059;SDS011;30799;49.060;9.312;2022-08-11T02:03:05;0.90;;;0.90;;
45059;SDS011;30799;49.060;9.312;2022-08-11T02:11:31;1.15;;;1.05;;
45059;SDS011;30799;49.060;9.312;2022-08-11T02:20:40;1.13;;;1.10;;
45059;SDS011;30799;49.060;9.312;2022-08-11T02:26:49;1.15;;;1.08;;
45059;SDS011;30799;49.060;9.312;2022-08-11T02:29:33;1.65;;;1.20;;
45059;SDS011;30799;49.060;9.312;2022-08-11T02:32:48;1.00;;;1.00;;
45059;SDS011;30799;49.060;9.312;2022-08-11T02:36:09;1.48;;;1.23;;
45059;SDS011;30799;49.060;9.312;2022-08-11T02:44:31;1.00;;;1.00;;
45059;SDS011;30799;49.060;9.312;2022-08-11T02:47:16;1.63;;;1.10;;
45059;SDS011;30799;49.060;9.312;2022-08-11T02:50:29;1.30;;;1.20;;
45059;SDS011;30799;49.060;9.312;2022-08-11T02:56:26;1.65;;;1.23;;
45059;SDS011;30799;49.060;9.312;2022-08-11T02:59:00;1.23;;;1.13;;
45059;SDS011;30799;49.060;9.312;2022-08-11T03:01:53;1.25;;;1.15;;
45059;SDS011;30799;49.060;9.312;2022-08-11T03:04:36;1.27;;;1.17;;
45059;SDS011;30799;49.060;9.312;2022-08-11T03:07:20;1.35;;;1.10;;
45059;SDS011;30799;49.060;9.312;2022-08-11T03:10:25;1.13;;;1.02;;
45059;SDS011;30799;49.060;9.312;2022-08-11T03:13:14;1.25;;;1.17;;
45059;SDS011;30799;49.060;9.312;2022-08-11T03:16:17;1.20;;;1.10;;
45059;SDS011;30799;49.060;9.312;2022-08-11T03:19:20;1.83;;;1.13;;
45059;SDS011;30799;49.060;9.312;2022-08-11T03:24:55;1.17;;;1.10;;
45059;SDS011;30799;49.060;9.312;2022-08-11T03:27:45;1.10;;;1.10;;
45059;SDS011;30799;49.060;9.312;2022-08-11T03:30:18;1.42;;;1.33;;
45059;SDS011;30799;49.060;9.312;2022-08-11T03:36:27;1.10;;;1.10;;
45059;SDS011;30799;49.060;9.312;2022-08-11T03:39:49;1.90;;;1.50;;
45059;SDS011;30799;49.060;9.312;2022-08-11T03:48:07;1.52;;;1.42;;
45059;SDS011;30799;49.060;9.312;2022-08-11T04:13:57;4.33;;;2.50;;
45059;SDS011;30799;49.060;9.312;2022-08-11T04:28:33;2.63;;;2.17;;
45059;SDS011;30799;49.060;9.312;2022-08-11T04:43:24;3.38;;;2.13;;
45059;SDS011;30799;49.060;9.312;2022-08-11T04:58:29;4.63;;;1.83;;
45059;SDS011;30799;49.060;9.312;2022-08-11T05:04:10;4.65;;;2.35;;
45059;SDS011;30799;49.060;9.312;2022-08-11T05:12:51;6.28;;;2.47;;
45059;SDS011;30799;49.060;9.312;2022-08-11T05:15:19;7.85;;;2.30;;
45059;SDS011;30799;49.060;9.312;2022-08-11T05:18:18;4.57;;;2.10;;
45059;SDS011;30799;49.060;9.312;2022-08-11T05:21:11;4.57;;;2.40;;
45059;SDS011;30799;49.060;9.312;2022-08-11T05:24:12;8.63;;;2.53;;
45059;SDS011;30799;49.060;9.312;2022-08-11T05:27:04;3.45;;;2.38;;
45059;SDS011;30799;49.060;9.312;2022-08-11T05:29:56;5.32;;;2.70;;
45059;SDS011;30799;49.060;9.312;2022-08-11T05:33:08;3.83;;;2.35;;
45059;SDS011;30799;49.060;9.312;2022-08-11T05:36:04;3.92;;;1.95;;
45059;SDS011;30799;49.060;9.312;2022-08-11T05:38:53;3.22;;;2.08;;
45059;SDS011;30799;49.060;9.312;2022-08-11T05:41:41;2.70;;;2.10;;
45059;SDS011;30799;49.060;9.312;2022-08-11T05:44:27;4.57;;;2.22;;
45059;SDS011;30799;49.060;9.312;2022-08-11T05:47:23;3.20;;;2.28;;
45059;SDS011;30799;49.060;9.312;2022-08-11T05:50:10;3.03;;;2.20;;
45059;SDS011;30799;49.060;9.312;2022-08-11T05:52:58;2.72;;;1.90;;
45059;SDS011;30799;49.060;9.312;2022-08-11T05:55:45;3.55;;;2.10;;
45059;SDS011;30799;49.060;9.312;2022-08-11T05:58:32;4.20;;;2.20;;
45059;SDS011;30799;49.060;9.312;2022-08-11T06:01:07;2.30;;;2.10;;
45059;SDS011;30799;49.060;9.312;2022-08-11T06:03:35;3.30;;;2.22;;
45059;SDS011;30799;49.060;9.312;2022-08-11T06:06:24;2.85;;;2.00;;
45059;SDS011;30799;49.060;9.312;2022-08-11T06:08:55;2.88;;;2.05;;
45059;SDS011;30799;49.060;9.312;2022-08-11T06:11:24;2.92;;;2.22;;
45059;SDS011;30799;49.060;9.312;2022-08-11T06:14:10;3.05;;;2.17;;
45059;SDS011;30799;49.060;9.312;2022-08-11T06:16:38;2.58;;;2.28;;
45059;SDS011;30799;49.060;9.312;2022-08-11T06:19:07;2.22;;;1.80;;
45059;SDS011;30799;49.060;9.312;2022-08-11T06:21:35;3.17;;;1.92;;
45059;SDS011;30799;49.060;9.312;2022-08-11T06:24:03;2.30;;;2.10;;
45059;SDS011;30799;49.060;9.312;2022-08-11T06:26:36;3.72;;;2.00;;
45059;SDS011;30799;49.060;9.312;2022-08-11T06:29:25;2.42;;;1.98;;
45059;SDS011;30799;49.060;9.312;2022-08-11T06:32:03;2.55;;;2.10;;
45059;SDS011;30799;49.060;9.312;2022-08-11T06:34:39;2.35;;;1.80;;
45059;SDS011;30799;49.060;9.312;2022-08-11T06:37:23;2.40;;;2.20;;
45059;SDS011;30799;49.060;9.312;2022-08-11T06:43:18;2.42;;;2.00;;
45059;SDS011;30799;49.060;9.312;2022-08-11T06:45:56;3.17;;;2.05;;
45059;SDS011;30799;49.060;9.312;2022-08-11T06:48:29;1.80;;;1.60;;
45059;SDS011;30799;49.060;9.312;2022-08-11T06:51:07;2.75;;;2.08;;
45059;SDS011;30799;49.060;9.312;2022-08-11T06:53:38;2.33;;;2.10;;
45059;SDS011;30799;49.060;9.312;2022-08-11T06:56:30;2.70;;;2.13;;
45059;SDS011;30799;49.060;9.312;2022-08-11T06:59:38;4.18;;;1.95;;
45059;SDS011;30799;49.060;9.312;2022-08-11T07:02:29;1.85;;;1.67;;
45059;SDS011;30799;49.060;9.312;2022-08-11T07:05:02;2.30;;;1.90;;
45059;SDS011;30799;49.060;9.312;2022-08-11T07:07:58;1.98;;;1.83;;
45059;SDS011;30799;49.060;9.312;2022-08-11T07:14:14;3.85;;;2.22;;
45059;SDS011;30799;49.060;9.312;2022-08-11T07:17:07;1.92;;;1.80;;
45059;SDS011;30799;49.060;9.312;2022-08-11T07:19:39;2.10;;;1.80;;
45059;SDS011;30799;49.060;9.312;2022-08-11T07:22:30;3.53;;;1.80;;
45059;SDS011;30799;49.060;9.312;2022-08-11T07:25:18;1.83;;;1.60;;
45059;SDS011;30799;49.060;9.312;2022-08-11T07:28:09;1.90;;;1.80;;
45059;SDS011;30799;49.060;9.312;2022-08-11T07:31:00;1.90;;;1.80;;
45059;SDS011;30799;49.060;9.312;2022-08-11T07:33:38;2.03;;;1.65;;
45059;SDS011;30799;49.060;9.312;2022-08-11T07:36:38;1.83;;;1.73;;
45059;SDS011;30799;49.060;9.312;2022-08-11T07:39:18;5.65;;;2.17;;
45059;SDS011;30799;49.060;9.312;2022-08-11T07:41:47;2.17;;;1.98;;
45059;SDS011;30799;49.060;9.312;2022-08-11T07:44:16;2.80;;;1.67;;
45059;SDS011;30799;49.060;9.312;2022-08-11T07:46:46;2.80;;;1.90;;
45059;SDS011;30799;49.060;9.312;2022-08-11T07:49:34;2.05;;;1.88;;
45059;SDS011;30799;49.060;9.312;2022-08-11T07:52:21;1.80;;;1.70;;
45059;SDS011;30799;49.060;9.312;2022-08-11T07:54:55;2.35;;;1.70;;
45059;SDS011;30799;49.060;9.312;2022-08-11T07:57:27;2.30;;;1.70;;
45059;SDS011;30799;49.060;9.312;2022-08-11T08:00:36;2.03;;;1.70;;
45059;SDS011;30799;49.060;9.312;2022-08-11T08:03:30;1.70;;;1.60;;
45059;SDS011;30799;49.060;9.312;2022-08-11T08:06:19;1.70;;;1.60;;
45059;SDS011;30799;49.060;9.312;2022-08-11T08:09:05;3.03;;;1.85;;
45059;SDS011;30799;49.060;9.312;2022-08-11T08:11:52;2.83;;;1.80;;
45059;SDS011;30799;49.060;9.312;2022-08-11T08:14:39;1.75;;;1.65;;
45059;SDS011;30799;49.060;9.312;2022-08-11T08:17:26;1.85;;;1.50;;
45059;SDS011;30799;49.060;9.312;2022-08-11T08:20:36;1.85;;;1.75;;
45059;SDS011;30799;49.060;9.312;2022-08-11T08:23:11;1.88;;;1.65;;
45059;SDS011;30799;49.060;9.312;2022-08-11T08:25:39;3.13;;;1.70;;
45059;SDS011;30799;49.060;9.312;2022-08-11T08:28:10;2.08;;;1.70;;
45059;SDS011;30799;49.060;9.312;2022-08-11T08:30:41;1.90;;;1.80;;
45059;SDS011;30799;49.060;9.312;2022-08-11T08:33:29;1.80;;;1.70;;
45059;SDS011;30799;49.060;9.312;2022-08-11T08:35:59;2.05;;;1.70;;
45059;SDS011;30799;49.060;9.312;2022-08-11T08:38:41;2.05;;;1.85;;
45059;SDS011;30799;49.060;9.312;2022-08-11T08:41:21;3.45;;;1.70;;
45059;SDS011;30799;49.060;9.312;2022-08-11T08:43:52;2.20;;;2.00;;
45059;SDS011;30799;49.060;9.312;2022-08-11T08:46:42;1.75;;;1.65;;
45059;SDS011;30799;49.060;9.312;2022-08-11T08:49:14;1.77;;;1.65;;
45059;SDS011;30799;49.060;9.312;2022-08-11T08:51:44;1.70;;;1.60;;
45059;SDS011;30799;49.060;9.312;2022-08-11T08:54:37;2.13;;;1.75;;
45059;SDS011;30799;49.060;9.312;2022-08-11T08:57:05;1.75;;;1.60;;
45059;SDS011;30799;49.060;9.312;2022-08-11T08:59:38;1.90;;;1.80;;
45059;SDS011;30799;49.060;9.312;2022-08-11T09:02:15;2.10;;;1.90;;
45059;SDS011;30799;49.060;9.312;2022-08-11T09:05:08;1.77;;;1.63;;
45059;SDS011;30799;49.060;9.312;2022-08-11T09:07:36;1.70;;;1.60;;
45059;SDS011;30799;49.060;9.312;2022-08-11T09:10:05;1.80;;;1.70;;
45059;SDS011;30799;49.060;9.312;2022-08-11T09:12:37;1.67;;;1.57;;
45059;SDS011;30799;49.060;9.312;2022-08-11T09:15:06;2.05;;;1.80;;
45059;SDS011;30799;49.060;9.312;2022-08-11T09:17:40;2.55;;;1.42;;
45059;SDS011;30799;49.060;9.312;2022-08-11T09:20:12;1.63;;;1.52;;
45059;SDS011;30799;49.060;9.312;2022-08-11T09:22:43;1.83;;;1.67;;
45059;SDS011;30799;49.060;9.312;2022-08-11T09:25:50;1.98;;;1.88;;
45059;SDS011;30799;49.060;9.312;2022-08-11T09:28:40;2.05;;;1.45;;
45059;SDS011;30799;49.060;9.312;2022-08-11T09:31:12;1.80;;;1.70;;
45059;SDS011;30799;49.060;9.312;2022-08-11T09:33:40;1.80;;;1.70;;
45059;SDS011;30799;49.060;9.312;2022-08-11T09:36:09;1.80;;;1.70;;
45059;SDS011;30799;49.060;9.312;2022-08-11T09:38:57;1.48;;;1.38;;
45059;SDS011;30799;49.060;9.312;2022-08-11T09:41:43;1.58;;;1.48;;
45059;SDS011;30799;49.060;9.312;2022-08-11T09:44:29;1.55;;;1.40;;
45059;SDS011;30799;49.060;9.312;2022-08-11T09:47:18;1.58;;;1.48;;
45059;SDS011;30799;49.060;9.312;2022-08-11T09:49:56;1.58;;;1.40;;
45059;SDS011;30799;49.060;9.312;2022-08-11T09:52:25;1.47;;;1.37;;
45059;SDS011;30799;49.060;9.312;2022-08-11T09:54:54;1.60;;;1.50;;
45059;SDS011;30799;49.060;9.312;2022-08-11T09:57:21;1.60;;;1.50;;
45059;SDS011;30799;49.060;9.312;2022-08-11T10:00:10;1.50;;;1.40;;
45059;SDS011;30799;49.060;9.312;2022-08-11T10:02:41;1.50;;;1.40;;
45059;SDS011;30799;49.060;9.312;2022-08-11T10:05:14;1.67;;;1.58;;
45059;SDS011;30799;49.060;9.312;2022-08-11T10:08:03;1.50;;;1.40;;
45059;SDS011;30799;49.060;9.312;2022-08-11T10:10:35;1.77;;;1.67;;
45059;SDS011;30799;49.060;9.312;2022-08-11T10:13:05;1.67;;;1.58;;
45059;SDS011;30799;49.060;9.312;2022-08-11T10:15:55;1.58;;;1.48;;
45059;SDS011;30799;49.060;9.312;2022-08-11T10:18:41;1.98;;;1.52;;
45059;SDS011;30799;49.060;9.312;2022-08-11T10:21:27;1.55;;;1.45;;
45059;SDS011;30799;49.060;9.312;2022-08-11T10:24:06;1.73;;;1.63;;
45059;SDS011;30799;49.060;9.312;2022-08-11T10:26:53;2.50;;;1.67;;
45059;SDS011;30799;49.060;9.312;2022-08-11T10:29:32;1.80;;;1.70;;
45059;SDS011;30799;49.060;9.312;2022-08-11T10:32:23;1.60;;;1.50;;
45059;SDS011;30799;49.060;9.312;2022-08-11T10:35:24;1.65;;;1.30;;
45059;SDS011;30799;49.060;9.312;2022-08-11T10:37:52;1.70;;;1.60;;
45059;SDS011;30799;49.060;9.312;2022-08-11T10:40:36;1.63;;;1.52;;
45059;SDS011;30799;49.060;9.312;2022-08-11T10:43:04;1.52;;;1.42;;
45059;SDS011;30799;49.060;9.312;2022-08-11T10:45:39;1.70;;;1.60;;
45059;SDS011;30799;49.060;9.312;2022-08-11T10:48:30;1.40;;;1.30;;
45059;SDS011;30799;49.060;9.312;2022-08-11T10:51:02;1.70;;;1.48;;
45059;SDS011;30799;49.060;9.312;2022-08-11T10:53:49;1.50;;;1.40;;
45059;SDS011;30799;49.060;9.312;2022-08-11T10:56:38;1.40;;;1.30;;
45059;SDS011;30799;49.060;9.312;2022-08-11T10:59:24;1.88;;;1.30;;
45059;SDS011;30799;49.060;9.312;2022-08-11T11:01:53;1.50;;;1.40;;
45059;SDS011;30799;49.060;9.312;2022-08-11T11:04:26;1.60;;;1.50;;
45059;SDS011;30799;49.060;9.312;2022-08-11T11:07:21;1.65;;;1.55;;
45059;SDS011;30799;49.060;9.312;2022-08-11T11:09:53;2.35;;;1.30;;
45059;SDS011;30799;49.060;9.312;2022-08-11T11:12:31;1.50;;;1.40;;
45059;SDS011;30799;49.060;9.312;2022-08-11T11:15:21;1.42;;;1.33;;
45059;SDS011;30799;49.060;9.312;2022-08-11T11:18:20;1.60;;;1.50;;
45059;SDS011;30799;49.060;9.312;2022-08-11T11:21:07;1.58;;;1.48;;
45059;SDS011;30799;49.060;9.312;2022-08-11T11:24:24;1.45;;;1.35;;
45059;SDS011;30799;49.060;9.312;2022-08-11T11:26:42;1.40;;;1.30;;
45059;SDS011;30799;49.060;9.312;2022-08-11T11:37:42;1.53;;;1.43;;
45059;SDS011;30799;49.060;9.312;2022-08-11T11:40:30;1.67;;;1.38;;
45059;SDS011;30799;49.060;9.312;2022-08-11T11:42:58;1.55;;;1.45;;
45059;SDS011;30799;49.060;9.312;2022-08-11T11:45:26;1.40;;;1.30;;
45059;SDS011;30799;49.060;9.312;2022-08-11T11:47:53;1.38;;;1.27;;
45059;SDS011;30799;49.060;9.312;2022-08-11T11:50:21;1.60;;;1.50;;
45059;SDS011;30799;49.060;9.312;2022-08-11T11:53:14;1.50;;;1.40;;
45059;SDS011;30799;49.060;9.312;2022-08-11T11:55:41;1.48;;;1.38;;
45059;SDS011;30799;49.060;9.312;2022-08-11T11:58:09;1.63;;;1.50;;
45059;SDS011;30799;49.060;9.312;2022-08-11T12:00:56;1.30;;;1.20;;
45059;SDS011;30799;49.060;9.312;2022-08-11T12:03:42;1.65;;;1.40;;
45059;SDS011;30799;49.060;9.312;2022-08-11T12:06:11;1.25;;;1.15;;
45059;SDS011;30799;49.060;9.312;2022-08-11T12:08:39;1.60;;;1.50;;
45059;SDS011;30799;49.060;9.312;2022-08-11T12:11:08;1.30;;;1.20;;
45059;SDS011;30799;49.060;9.312;2022-08-11T12:13:56;1.50;;;1.40;;
45059;SDS011;30799;49.060;9.312;2022-08-11T12:16:25;1.77;;;1.40;;
45059;SDS011;30799;49.060;9.312;2022-08-11T12:19:09;1.38;;;1.27;;
45059;SDS011;30799;49.060;9.312;2022-08-11T12:21:38;1.50;;;1.23;;
45059;SDS011;30799;49.060;9.312;2022-08-11T12:24:27;1.33;;;1.23;;
45059;SDS011;30799;49.060;9.312;2022-08-11T12:27:13;1.25;;;1.17;;
45059;SDS011;30799;49.060;9.312;2022-08-11T12:29:58;1.40;;;1.30;;
45059;SDS011;30799;49.060;9.312;2022-08-11T12:32:31;1.52;;;1.30;;
45059;SDS011;30799;49.060;9.312;2022-08-11T12:35:00;1.38;;;1.27;;
45059;SDS011;30799;49.060;9.312;2022-08-11T12:37:29;1.25;;;1.20;;
45059;SDS011;30799;49.060;9.312;2022-08-11T12:39:59;1.42;;;1.33;;
45059;SDS011;30799;49.060;9.312;2022-08-11T12:43:08;1.38;;;1.27;;
45059;SDS011;30799;49.060;9.312;2022-08-11T12:46:08;1.63;;;1.33;;
45059;SDS011;30799;49.060;9.312;2022-08-11T12:48:41;1.45;;;1.35;;
45059;SDS011;30799;49.060;9.312;2022-08-11T12:51:30;1.23;;;1.20;;
45059;SDS011;30799;49.060;9.312;2022-08-11T12:54:47;2.00;;;1.30;;
45059;SDS011;30799;49.060;9.312;2022-08-11T13:00:17;1.35;;;1.27;;
45059;SDS011;30799;49.060;9.312;2022-08-11T13:03:04;1.45;;;1.35;;
45059;SDS011;30799;49.060;9.312;2022-08-11T13:05:53;1.40;;;1.30;;
45059;SDS011;30799;49.060;9.312;2022-08-11T13:08:26;1.10;;;1.10;;
45059;SDS011;30799;49.060;9.312;2022-08-11T13:10:54;1.30;;;1.20;;
45059;SDS011;30799;49.060;9.312;2022-08-11T13:13:42;1.45;;;1.35;;
45059;SDS011;30799;49.060;9.312;2022-08-11T13:16:21;1.50;;;1.40;;
45059;SDS011;30799;49.060;9.312;2022-08-11T13:18:50;1.15;;;1.10;;
45059;SDS011;30799;49.060;9.312;2022-08-11T13:21:18;1.27;;;1.17;;
45059;SDS011;30799;49.060;9.312;2022-08-11T13:23:50;1.35;;;1.25;;
45059;SDS011;30799;49.060;9.312;2022-08-11T13:26:31;1.63;;;1.38;;
45059;SDS011;30799;49.060;9.312;2022-08-11T13:29:13;1.30;;;1.20;;
45059;SDS011;30799;49.060;9.312;2022-08-11T13:31:42;1.45;;;1.35;;
45059;SDS011;30799;49.060;9.312;2022-08-11T13:34:09;1.00;;;1.00;;
45059;SDS011;30799;49.060;9.312;2022-08-11T13:36:37;1.20;;;1.10;;
45059;SDS011;30799;49.060;9.312;2022-08-11T13:39:04;1.35;;;1.25;;
45059;SDS011;30799;49.060;9.312;2022-08-11T13:41:31;1.10;;;1.10;;
45059;SDS011;30799;49.060;9.312;2022-08-11T13:44:05;1.23;;;1.20;;
45059;SDS011;30799;49.060;9.312;2022-08-11T13:46:40;1.45;;;1.35;;
45059;SDS011;30799;49.060;9.312;2022-08-11T13:49:09;1.02;;;1.00;;
45059;SDS011;30799;49.060;9.312;2022-08-11T13:51:36;1.15;;;1.10;;
45059;SDS011;30799;49.060;9.312;2022-08-11T13:54:05;1.05;;;1.05;;
45059;SDS011;30799;49.060;9.312;2022-08-11T13:56:41;1.00;;;1.00;;
45059;SDS011;30799;49.060;9.312;2022-08-11T13:59:12;1.15;;;1.15;;
45059;SDS011;30799;49.060;9.312;2022-08-11T14:01:41;1.30;;;1.20;;
45059;SDS011;30799;49.060;9.312;2022-08-11T14:04:40;1.08;;;1.08;;
45059;SDS011;30799;49.060;9.312;2022-08-11T14:07:16;1.40;;;1.30;;
45059;SDS011;30799;49.060;9.312;2022-08-11T14:09:47;1.48;;;1.38;;
45059;SDS011;30799;49.060;9.312;2022-08-11T14:12:23;1.35;;;1.25;;
45059;SDS011;30799;49.060;9.312;2022-08-11T14:15:17;1.42;;;1.30;;
45059;SDS011;30799;49.060;9.312;2022-08-11T14:17:51;1.25;;;1.15;;
45059;SDS011;30799;49.060;9.312;2022-08-11T14:20:21;1.45;;;1.00;;
45059;SDS011;30799;49.060;9.312;2022-08-11T14:23:05;1.20;;;1.10;;
45059;SDS011;30799;49.060;9.312;2022-08-11T14:25:35;1.65;;;1.50;;
45059;SDS011;30799;49.060;9.312;2022-08-11T14:28:26;1.08;;;1.02;;
45059;SDS011;30799;49.060;9.312;2022-08-11T14:31:01;1.15;;;1.13;;
45059;SDS011;30799;49.060;9.312;2022-08-11T14:33:30;1.00;;;1.00;;
45059;SDS011;30799;49.060;9.312;2022-08-11T14:36:18;1.15;;;1.05;;
45059;SDS011;30799;49.060;9.312;2022-08-11T14:38:47;1.08;;;1.08;;
45059;SDS011;30799;49.060;9.312;2022-08-11T14:41:15;1.00;;;1.00;;
45059;SDS011;30799;49.060;9.312;2022-08-11T14:44:22;1.45;;;1.35;;
45059;SDS011;30799;49.060;9.312;2022-08-11T14:47:09;1.10;;;1.10;;
45059;SDS011;30799;49.060;9.312;2022-08-11T14:49:49;1.10;;;1.00;;
45059;SDS011;30799;49.060;9.312;2022-08-11T14:52:37;0.90;;;0.90;;
45059;SDS011;30799;49.060;9.312;2022-08-11T14:55:08;1.48;;;1.17;;
45059;SDS011;30799;49.060;9.312;2022-08-11T14:57:55;1.00;;;1.00;;
45059;SDS011;30799;49.060;9.312;2022-08-11T15:00:22;1.10;;;1.00;;
45059;SDS011;30799;49.060;9.312;2022-08-11T15:02:50;1.10;;;1.10;;
45059;SDS011;30799;49.060;9.312;2022-08-11T15:05:39;4.93;;;1.30;;
45059;SDS011;30799;49.060;9.312;2022-08-11T15:08:22;3.92;;;1.40;;
45059;SDS011;30799;49.060;9.312;2022-08-11T15:11:11;4.90;;;1.30;;
45059;SDS011;30799;49.060;9.312;2022-08-11T15:13:59;3.75;;;1.27;;
45059;SDS011;30799;49.060;9.312;2022-08-11T15:16:28;7.53;;;1.25;;
45059;SDS011;30799;49.060;9.312;2022-08-11T15:19:14;1.58;;;1.20;;
45059;SDS011;30799;49.060;9.312;2022-08-11T15:21:44;1.73;;;1.30;;
45059;SDS011;30799;49.060;9.312;2022-08-11T15:24:30;3.38;;;1.30;;
45059;SDS011;30799;49.060;9.312;2022-08-11T15:27:00;1.25;;;1.13;;
45059;SDS011;30799;49.060;9.312;2022-08-11T15:29:56;2.28;;;1.10;;
45059;SDS011;30799;49.060;9.312;2022-08-11T15:33:08;3.63;;;1.35;;
45059;SDS011;30799;49.060;9.312;2022-08-11T15:35:55;3.53;;;1.05;;
45059;SDS011;30799;49.060;9.312;2022-08-11T15:38:43;3.53;;;1.10;;
45059;SDS011;30799;49.060;9.312;2022-08-11T15:41:20;8.52;;;1.40;;
45059;SDS011;30799;49.060;9.312;2022-08-11T15:44:23;1.67;;;1.25;;
45059;SDS011;30799;49.060;9.312;2022-08-11T15:47:37;3.42;;;1.40;;
45059;SDS011;30799;49.060;9.312;2022-08-11T15:50:16;9.18;;;1.50;;
45059;SDS011;30799;49.060;9.312;2022-08-11T15:52:58;3.80;;;1.33;;
45059;SDS011;30799;49.060;9.312;2022-08-11T15:55:29;3.42;;;1.20;;
45059;SDS011;30799;49.060;9.312;2022-08-11T15:57:59;2.15;;;1.20;;
45059;SDS011;30799;49.060;9.312;2022-08-11T16:00:48;2.22;;;1.10;;
45059;SDS011;30799;49.060;9.312;2022-08-11T16:03:38;5.90;;;1.48;;
45059;SDS011;30799;49.060;9.312;2022-08-11T16:06:38;1.80;;;1.10;;
45059;SDS011;30799;49.060;9.312;2022-08-11T16:09:26;1.48;;;1.15;;
45059;SDS011;30799;49.060;9.312;2022-08-11T16:12:14;1.85;;;1.10;;
45059;SDS011;30799;49.060;9.312;2022-08-11T16:14:45;2.58;;;1.10;;
45059;SDS011;30799;49.060;9.312;2022-08-11T16:17:36;1.50;;;1.10;;
45059;SDS011;30799;49.060;9.312;2022-08-11T16:20:14;1.38;;;1.20;;
45059;SDS011;30799;49.060;9.312;2022-08-11T16:22:44;1.17;;;1.00;;
45059;SDS011;30799;49.060;9.312;2022-08-11T16:25:27;1.10;;;1.00;;
45059;SDS011;30799;49.060;9.312;2022-08-11T16:28:17;3.83;;;1.00;;
45059;SDS011;30799;49.060;9.312;2022-08-11T16:30:46;2.63;;;1.13;;
45059;SDS011;30799;49.060;9.312;2022-08-11T16:33:14;2.92;;;0.73;;
45059;SDS011;30799;49.060;9.312;2022-08-11T16:36:02;1.33;;;1.20;;
45059;SDS011;30799;49.060;9.312;2022-08-11T16:38:49;2.05;;;1.15;;
45059;SDS011;30799;49.060;9.312;2022-08-11T16:41:17;2.45;;;1.17;;
45059;SDS011;30799;49.060;9.312;2022-08-11T16:44:09;1.90;;;1.10;;
45059;SDS011;30799;49.060;9.312;2022-08-11T16:47:05;1.92;;;1.00;;
45059;SDS011;30799;49.060;9.312;2022-08-11T16:49:43;1.52;;;1.00;;
45059;SDS011;30799;49.060;9.312;2022-08-11T16:52:17;1.27;;;1.10;;
45059;SDS011;30799;49.060;9.312;2022-08-11T16:54:46;1.80;;;1.05;;
45059;SDS011;30799;49.060;9.312;2022-08-11T16:57:21;2.58;;;1.10;;
45059;SDS011;30799;49.060;9.312;2022-08-11T17:00:08;2.00;;;1.15;;
45059;SDS011;30799;49.060;9.312;2022-08-11T17:02:49;1.23;;;0.90;;
45059;SDS011;30799;49.060;9.312;2022-08-11T17:05:37;1.77;;;1.08;;
45059;SDS011;30799;49.060;9.312;2022-08-11T17:08:29;1.40;;;1.30;;
45059;SDS011;30799;49.060;9.312;2022-08-11T17:11:24;0.98;;;0.90;;
45059;SDS011;30799;49.060;9.312;2022-08-11T17:14:15;2.50;;;1.08;;
45059;SDS011;30799;49.060;9.312;2022-08-11T17:17:02;1.65;;;1.20;;
45059;SDS011;30799;49.060;9.312;2022-08-11T17:19:32;1.35;;;1.10;;
45059;SDS011;30799;49.060;9.312;2022-08-11T17:22:23;1.88;;;1.20;;
45059;SDS011;30799;49.060;9.312;2022-08-11T17:25:12;3.55;;;0.95;;
45059;SDS011;30799;49.060;9.312;2022-08-11T17:27:40;3.25;;;1.38;;
45059;SDS011;30799;49.060;9.312;2022-08-11T17:30:09;3.28;;;1.10;;
45059;SDS011;30799;49.060;9.312;2022-08-11T17:32:37;3.90;;;1.70;;
45059;SDS011;30799;49.060;9.312;2022-08-11T17:35:31;1.88;;;1.17;;
45059;SDS011;30799;49.060;9.312;2022-08-11T17:38:07;1.58;;;1.10;;
45059;SDS011;30799;49.060;9.312;2022-08-11T17:40:38;2.17;;;1.33;;
45059;SDS011;30799;49.060;9.312;2022-08-11T17:43:28;1.20;;;1.10;;
45059;SDS011;30799;49.060;9.312;2022-08-11T17:46:15;2.20;;;1.17;;
45059;SDS011;30799;49.060;9.312;2022-08-11T17:49:02;2.00;;;1.02;;
45059;SDS011;30799;49.060;9.312;2022-08-11T17:51:33;4.90;;;1.63;;
45059;SDS011;30799;49.060;9.312;2022-08-11T17:54:20;1.83;;;1.20;;
45059;SDS011;30799;49.060;9.312;2022-08-11T17:57:07;3.55;;;1.20;;
45059;SDS011;30799;49.060;9.312;2022-08-11T17:59:53;3.47;;;1.10;;
45059;SDS011;30799;49.060;9.312;2022-08-11T18:02:24;2.85;;;1.08;;
45059;SDS011;30799;49.060;9.312;2022-08-11T18:07:45;1.38;;;1.20;;
45059;SDS011;30799;49.060;9.312;2022-08-11T18:10:34;2.17;;;1.30;;
45059;SDS011;30799;49.060;9.312;2022-08-11T18:13:21;3.38;;;1.20;;
45059;SDS011;30799;49.060;9.312;2022-08-11T18:16:08;3.05;;;1.20;;
45059;SDS011;30799;49.060;9.312;2022-08-11T18:18:54;3.45;;;1.13;;
45059;SDS011;30799;49.060;9.312;2022-08-11T18:21:41;3.65;;;1.63;;
45059;SDS011;30799;49.060;9.312;2022-08-11T18:24:44;1.95;;;1.25;;
45059;SDS011;30799;49.060;9.312;2022-08-11T18:27:32;2.38;;;1.30;;
45059;SDS011;30799;49.060;9.312;2022-08-11T18:30:19;3.83;;;1.13;;
45059;SDS011;30799;49.060;9.312;2022-08-11T18:33:05;1.80;;;1.35;;
45059;SDS011;30799;49.060;9.312;2022-08-11T18:36:14;5.10;;;1.50;;
45059;SDS011;30799;49.060;9.312;2022-08-11T18:39:05;2.58;;;1.15;;
45059;SDS011;30799;49.060;9.312;2022-08-11T18:41:55;5.28;;;1.48;;
45059;SDS011;30799;49.060;9.312;2022-08-11T18:44:55;3.50;;;1.20;;
45059;SDS011;30799;49.060;9.312;2022-08-11T18:47:43;3.50;;;1.13;;
45059;SDS011;30799;49.060;9.312;2022-08-11T18:50:34;5.28;;;1.70;;
45059;SDS011;30799;49.060;9.312;2022-08-11T18:53:43;3.80;;;1.10;;
45059;SDS011;30799;49.060;9.312;2022-08-11T18:56:46;4.50;;;1.33;;
45059;SDS011;30799;49.060;9.312;2022-08-11T18:59:35;2.50;;;1.27;;
45059;SDS011;30799;49.060;9.312;2022-08-11T19:02:24;7.28;;;1.48;;
45059;SDS011;30799;49.060;9.312;2022-08-11T19:05:14;1.88;;;1.48;;
45059;SDS011;30799;49.060;9.312;2022-08-11T19:08:22;4.53;;;1.75;;
45059;SDS011;30799;49.060;9.312;2022-08-11T19:11:13;5.35;;;1.48;;
45059;SDS011;30799;49.060;9.312;2022-08-11T19:14:08;4.18;;;1.30;;
45059;SDS011;30799;49.060;9.312;2022-08-11T19:16:56;3.28;;;1.25;;